createdAt,value
2019-01-14T00:00:56.104Z,61536.54
2019-01-14T00:03:22.351Z,61528.34
2019-01-14T00:05:48.602Z,61523.57
2019-01-14T00:08:14.831Z,61516.91
2019-01-14T00:10:41.083Z,61510.47
2019-01-14T00:13:07.324Z,61509.60
2019-01-14T00:15:33.597Z,61502.17
2019-01-14T00:17:59.838Z,61502.03
2019-01-14T00:20:26.087Z,61499.33
2019-01-14T00:22:52.216Z,61498.86
2019-01-14T00:25:18.456Z,61484.31
2019-01-14T00:27:44.689Z,61480.60
2019-01-14T00:30:52.257Z,61472.68
2019-01-14T00:33:18.497Z,61470.54
2019-01-14T00:35:44.746Z,61464.29
2019-01-14T00:38:10.977Z,61455.71
2019-01-14T00:40:37.249Z,61454.09
2019-01-14T00:45:51.133Z,61454.14
2019-01-14T00:48:17.264Z,61453.95
2019-01-14T00:50:43.508Z,61454.14
2019-01-14T00:53:09.743Z,61446.77
2019-01-14T00:55:35.988Z,61445.17
2019-01-14T00:58:02.228Z,61439.41
2019-01-14T01:00:28.474Z,61438.52
2019-01-14T01:02:54.710Z,61431.71
2019-01-14T01:05:20.849Z,61433.52
2019-01-14T01:07:47.080Z,61432.09
2019-01-14T01:10:54.657Z,61431.75
2019-01-14T01:13:20.898Z,61431.50
2019-01-14T01:15:47.127Z,61435.84
2019-01-14T01:18:13.376Z,61442.33
2019-01-14T01:23:13.636Z,61444.77
2019-01-14T01:25:39.887Z,61441.55
2019-01-14T01:28:06.115Z,61441.41
2019-01-14T01:30:32.369Z,61438.33
2019-01-14T01:32:58.602Z,61442.44
2019-01-14T01:35:24.853Z,61453.37
2019-01-14T01:37:51.085Z,61461.47
2019-01-14T01:40:58.653Z,61472.40
2019-01-14T01:43:24.902Z,61483.04
2019-01-14T01:45:51.150Z,61509.60
2019-01-14T01:48:17.278Z,61525.43
2019-01-14T01:50:43.425Z,61542.21
2019-01-14T01:53:09.661Z,61549.88
2019-01-14T01:55:35.896Z,61561.71
2019-01-14T01:58:02.152Z,61593.61
2019-01-14T02:00:28.481Z,61606.30
2019-01-14T02:02:54.738Z,61601.61
2019-01-14T02:05:20.971Z,61609.52
2019-01-14T02:07:47.207Z,61615.59
2019-01-14T02:10:54.744Z,61630.49
2019-01-14T02:13:20.996Z,61637.10
2019-01-14T02:15:47.236Z,61650.19
2019-01-14T02:18:13.476Z,61662.23
2019-01-14T02:20:39.711Z,61672.55
2019-01-14T02:23:05.963Z,61689.33
2019-01-14T02:25:32.196Z,61694.81
2019-01-14T02:27:58.444Z,61710.67
2019-01-14T02:30:24.688Z,61724.67
2019-01-14T02:32:50.950Z,61732.21
2019-01-14T02:35:17.166Z,61738.66
2019-01-14T02:37:43.508Z,61741.70
2019-01-14T02:43:23.454Z,61770.30
2019-01-14T02:45:49.700Z,61772.88
2019-01-14T02:48:15.840Z,61783.50
2019-01-14T02:50:41.973Z,61789.82
2019-01-14T02:56:01.700Z,61807.41
2019-01-14T02:58:27.946Z,61813.28
2019-01-14T03:00:54.173Z,61824.84
2019-01-14T03:03:20.423Z,61836.65
2019-01-14T03:05:46.641Z,61844.26
2019-01-14T03:08:12.892Z,61844.26
2019-01-14T03:10:39.115Z,61838.86
2019-01-14T03:13:05.323Z,61835.24
2019-01-14T03:15:31.525Z,61830.38
2019-01-14T03:17:57.775Z,61826.61
2019-01-14T03:20:23.897Z,61822.50
2019-01-14T03:22:50.046Z,61825.44
2019-01-14T03:25:16.374Z,61819.06
2019-01-14T03:27:42.510Z,61827.50
2019-01-14T03:30:50.070Z,61836.71
2019-01-14T03:33:16.317Z,61847.89
2019-01-14T03:35:42.443Z,61850.32
2019-01-14T03:38:08.593Z,61850.53
2019-01-14T03:40:34.932Z,61862.71
2019-01-14T03:43:01.153Z,61869.52
2019-01-14T03:45:27.286Z,61875.99
2019-01-14T03:47:53.522Z,61885.88
2019-01-14T03:51:01.068Z,61889.52
2019-01-14T03:53:27.338Z,61886.97
2019-01-14T03:55:53.569Z,61884.61
2019-01-14T03:58:19.797Z,61893.84
2019-01-14T04:00:46.036Z,61893.11
2019-01-14T04:03:12.267Z,61889.82
2019-01-14T04:05:38.403Z,61897.08
2019-01-14T04:08:04.629Z,61900.80
2019-01-14T04:10:30.879Z,61908.60
2019-01-14T04:12:57.021Z,61910.70
2019-01-14T04:15:23.249Z,61909.96
2019-01-14T04:17:49.400Z,61906.39
2019-01-14T04:20:56.961Z,61911.29
2019-01-14T04:23:23.209Z,61908.95
2019-01-14T04:25:49.355Z,61908.00
2019-01-14T04:28:15.596Z,61903.49
2019-01-14T04:30:41.715Z,61911.64
2019-01-14T04:33:07.957Z,61912.38
2019-01-14T04:35:34.227Z,61911.10
2019-01-14T04:38:00.352Z,61915.81
2019-01-14T04:40:26.489Z,61916.48
2019-01-14T04:42:52.607Z,61915.02
2019-01-14T04:45:18.862Z,61918.46
2019-01-14T04:47:45.099Z,61916.10
2019-01-14T04:50:31.098Z,61914.28
2019-01-14T04:52:57.328Z,61915.56
2019-01-14T04:55:23.566Z,61917.57
2019-01-14T04:57:49.796Z,61917.38
2019-01-14T05:00:57.347Z,61916.29
2019-01-14T05:03:23.592Z,61917.19
2019-01-14T05:05:49.830Z,61922.49
2019-01-14T05:08:16.050Z,61919.93
2019-01-14T05:10:42.295Z,61917.38
2019-01-14T05:13:08.427Z,61912.65
2019-01-14T05:15:34.663Z,61923.17
2019-01-14T05:18:00.785Z,61923.91
2019-01-14T05:20:27.052Z,61920.42
2019-01-14T05:26:07.047Z,61923.50
2019-01-14T05:28:33.183Z,61922.77
2019-01-14T05:30:59.302Z,61927.28
2019-01-14T05:33:25.522Z,61930.37
2019-01-14T05:35:51.680Z,61926.16
2019-01-14T05:38:17.902Z,61927.08
2019-01-14T05:40:44.147Z,61926.16
2019-01-14T05:43:10.375Z,61929.64
2019-01-14T05:45:36.616Z,61928.91
2019-01-14T05:48:02.760Z,61930.73
2019-01-14T05:50:28.973Z,61924.93
2019-01-14T05:52:55.226Z,61923.66
2019-01-14T05:55:21.364Z,61926.21
2019-01-14T05:57:47.492Z,61924.04
2019-01-14T06:05:42.867Z,61928.23
2019-01-14T06:08:09.004Z,61921.48
2019-01-14T06:10:35.218Z,61928.77
2019-01-14T06:13:01.517Z,61927.82
2019-01-14T06:15:27.847Z,61927.43
2019-01-14T06:17:54.072Z,61936.52
2019-01-14T06:25:39.708Z,61935.43
2019-01-14T06:28:05.970Z,61932.14
2019-01-14T06:30:32.108Z,61929.99
2019-01-14T06:32:58.344Z,61925.21
2019-01-14T06:35:24.674Z,61930.12
2019-01-14T06:37:52.647Z,61933.09
2019-01-14T06:43:32.596Z,61932.49
2019-01-14T06:45:58.832Z,61930.46
2019-01-14T06:48:24.980Z,61931.46
2019-01-14T06:50:51.210Z,61930.73
2019-01-14T06:53:17.452Z,61927.98
2019-01-14T06:55:43.680Z,61928.36
2019-01-14T06:58:09.936Z,61928.91
2019-01-14T07:00:36.160Z,61928.36
2019-01-14T07:03:02.493Z,61931.27
2019-01-14T07:05:28.617Z,61930.73
2019-01-14T07:07:59.529Z,61930.73
2019-01-14T07:10:42.773Z,61927.98
2019-01-14T07:13:09.015Z,61935.98
2019-01-14T07:15:35.239Z,61927.08
2019-01-14T07:18:01.475Z,61921.43
2019-01-14T07:20:27.714Z,61926.75
2019-01-14T07:22:53.929Z,61929.45
2019-01-14T07:25:20.075Z,61929.99
2019-01-14T07:27:46.197Z,61930.53
2019-01-14T07:30:53.748Z,61930.53
2019-01-14T07:33:20.012Z,61928.36
2019-01-14T07:35:46.239Z,61929.45
2019-01-14T07:38:12.573Z,61923.25
2019-01-14T07:40:38.808Z,61928.17
2019-01-14T07:43:05.036Z,61928.71
2019-01-14T07:45:31.273Z,61930.53
2019-01-14T07:47:57.395Z,61930.12
2019-01-14T07:50:23.631Z,61932.87
2019-01-14T07:52:49.751Z,61934.64
2019-01-14T07:55:15.989Z,61933.77
2019-01-14T07:57:42.211Z,61931.89
2019-01-14T08:00:28.204Z,61933.90
2019-01-14T08:02:54.453Z,61934.04
2019-01-14T08:05:20.697Z,61935.32
2019-01-14T08:07:54.547Z,61938.61
2019-01-14T08:10:20.793Z,61935.67
2019-01-14T08:12:47.011Z,61938.96
2019-01-14T08:15:32.934Z,61934.78
2019-01-14T08:17:59.059Z,61938.61
2019-01-14T08:20:25.304Z,61937.68
2019-01-14T08:22:51.528Z,61932.96
2019-01-14T08:25:17.759Z,61936.60
2019-01-14T08:27:43.974Z,61939.50
2019-01-14T08:30:51.532Z,61933.36
2019-01-14T08:33:17.754Z,61935.18
2019-01-14T08:35:43.990Z,61930.26
2019-01-14T08:38:10.211Z,61932.96
2019-01-14T08:40:36.446Z,61937.00
2019-01-14T08:43:02.893Z,61931.73
2019-01-14T08:45:29.144Z,61936.46
2019-01-14T08:47:55.385Z,61933.01
2019-01-14T08:50:21.608Z,61931.60
2019-01-14T08:52:47.960Z,61928.50
2019-01-14T08:55:14.193Z,61934.70
2019-01-14T08:57:40.436Z,61929.78
2019-01-14T09:00:26.415Z,61926.35
2019-01-14T09:02:52.666Z,61925.48
2019-01-14T09:05:18.892Z,61926.35
2019-01-14T09:07:45.028Z,61924.93
2019-01-14T09:10:31.003Z,61922.77
2019-01-14T09:12:57.247Z,61924.93
2019-01-14T09:15:23.471Z,61922.38
2019-01-14T09:17:49.855Z,61925.13
2019-01-14T09:20:58.950Z,61921.89
2019-01-14T09:23:25.473Z,61920.42
2019-01-14T09:25:53.966Z,61916.64
2019-01-14T09:28:19.878Z,61920.80
2019-01-14T09:30:46.121Z,61917.38
2019-01-14T09:33:12.371Z,61913.20
2019-01-14T09:35:38.591Z,61911.59
2019-01-14T09:38:04.845Z,61917.77
2019-01-14T09:40:31.071Z,61914.88
2019-01-14T09:42:57.324Z,61915.21
2019-01-14T09:45:23.544Z,61908.49
2019-01-14T09:47:49.798Z,61914.34
2019-01-14T09:50:16.016Z,61917.98
2019-01-14T09:52:42.261Z,61915.96
2019-01-14T09:58:21.826Z,61913.79
2019-01-14T10:00:48.054Z,61917.57
2019-01-14T10:03:14.289Z,61913.25
2019-01-14T10:05:40.509Z,61915.61
2019-01-14T10:08:06.653Z,61906.86
2019-01-14T10:10:32.892Z,61908.35
2019-01-14T10:12:59.175Z,61913.06
2019-01-14T10:15:25.391Z,61914.88
2019-01-14T10:18:11.389Z,61913.06
2019-01-14T10:20:37.639Z,61914.34
2019-01-14T10:23:03.893Z,61915.21
2019-01-14T10:26:11.463Z,61915.42
2019-01-14T10:28:37.708Z,61914.88
2019-01-14T10:31:03.928Z,61909.03
2019-01-14T10:33:30.169Z,61914.14
2019-01-14T10:35:56.402Z,61911.78
2019-01-14T10:38:22.531Z,61912.52
2019-01-14T10:40:48.765Z,61907.27
2019-01-14T10:43:15.013Z,61909.63
2019-01-14T10:45:41.256Z,61915.61
2019-01-14T10:48:07.375Z,61916.70
2019-01-14T10:50:33.620Z,61912.13
2019-01-14T10:52:59.750Z,61914.53
2019-01-14T10:55:25.989Z,61913.46
2019-01-14T10:57:52.119Z,61910.17
2019-01-14T11:03:14.909Z,61911.97
2019-01-14T11:05:41.160Z,61911.10
2019-01-14T11:08:07.393Z,61910.96
2019-01-14T11:10:33.627Z,61907.07
2019-01-14T11:12:59.864Z,61906.05
2019-01-14T11:15:26.095Z,61906.59
2019-01-14T11:17:52.226Z,61905.50
2019-01-14T11:20:38.210Z,61905.31
2019-01-14T11:23:04.436Z,61903.68
2019-01-14T11:25:30.699Z,61909.14
2019-01-14T11:28:38.244Z,61904.36
2019-01-14T11:34:01.238Z,61900.06
2019-01-14T11:36:27.487Z,61906.24
2019-01-14T11:38:53.718Z,61909.34
2019-01-14T11:41:19.963Z,61905.50
2019-01-14T11:43:46.092Z,61904.44
2019-01-14T11:46:12.337Z,61901.34
2019-01-14T11:48:38.658Z,61902.27
2019-01-14T11:51:04.993Z,61899.91
2019-01-14T11:53:31.217Z,61901.73
2019-01-14T11:55:57.454Z,61899.38
2019-01-14T11:58:23.679Z,61902.87
2019-01-14T12:00:49.811Z,61897.76
2019-01-14T12:03:16.047Z,61896.83
2019-01-14T12:05:42.298Z,61897.76
2019-01-14T12:08:08.512Z,61896.07
2019-01-14T12:10:34.807Z,61899.38
2019-01-14T12:13:00.943Z,61900.45
2019-01-14T12:16:08.498Z,61899.91
2019-01-14T12:18:34.713Z,61902.46
2019-01-14T12:21:00.948Z,61902.46
2019-01-14T12:23:27.073Z,61901.73
2019-01-14T12:25:53.228Z,61896.13
2019-01-14T12:28:19.362Z,61897.41
2019-01-14T12:30:45.576Z,61895.06
2019-01-14T12:33:11.815Z,61895.61
2019-01-14T12:35:37.952Z,61897.02
2019-01-14T12:38:04.188Z,61901.94
2019-01-14T12:40:30.305Z,61899.57
2019-01-14T12:42:56.449Z,61898.49
2019-01-14T12:45:22.588Z,61896.67
2019-01-14T12:47:48.830Z,61893.05
2019-01-14T12:50:56.376Z,61896.89
2019-01-14T12:53:22.624Z,61899.23
2019-01-14T12:55:48.752Z,61897.08
2019-01-14T12:58:14.899Z,61900.50
2019-01-14T13:00:41.117Z,61894.71
2019-01-14T13:03:07.351Z,61894.17
2019-01-14T13:05:33.580Z,61893.98
2019-01-14T13:07:59.820Z,61895.80
2019-01-14T13:10:26.138Z,61898.16
2019-01-14T13:12:52.383Z,61895.39
2019-01-14T13:18:32.300Z,61901.45
2019-01-14T13:20:58.434Z,61893.79
2019-01-14T13:23:24.667Z,61895.61
2019-01-14T13:25:50.900Z,61895.26
2019-01-14T13:28:17.144Z,61893.24
2019-01-14T13:30:43.277Z,61895.61
2019-01-14T13:33:09.410Z,61899.23
2019-01-14T13:35:35.632Z,61896.89
2019-01-14T13:38:01.864Z,61897.48
2019-01-14T13:40:28.084Z,61897.27
2019-01-14T13:42:54.235Z,61893.11
2019-01-14T13:46:01.768Z,61891.48
2019-01-14T13:48:28.050Z,61894.77
2019-01-14T13:50:54.282Z,61888.38
2019-01-14T13:53:20.520Z,61885.83
2019-01-14T13:55:46.741Z,61892.57
2019-01-14T13:58:12.976Z,61890.20
2019-01-14T14:00:39.211Z,61892.02
2019-01-14T14:03:05.455Z,61892.02
2019-01-14T14:05:31.713Z,61890.20
2019-01-14T14:07:57.832Z,61892.21
2019-01-14T14:11:05.383Z,61892.76
2019-01-14T14:13:31.641Z,61887.16
2019-01-14T14:15:57.778Z,61886.77
2019-01-14T14:18:24.036Z,61797.71
2019-01-14T14:20:50.155Z,61886.97
2019-01-14T14:23:16.381Z,61887.37
2019-01-14T14:25:42.616Z,61885.36
2019-01-14T14:28:08.844Z,61888.11
2019-01-14T14:33:31.762Z,61886.10
2019-01-14T14:35:57.991Z,61890.26
2019-01-14T14:38:24.125Z,61888.98
2019-01-14T14:40:50.350Z,61887.92
2019-01-14T14:43:16.573Z,61884.09
2019-01-14T14:45:42.827Z,61883.33
2019-01-14T14:48:09.059Z,61886.10
2019-01-14T14:50:35.201Z,61886.43
2019-01-14T14:53:01.314Z,61884.61
2019-01-14T14:55:27.553Z,61887.70
2019-01-14T14:57:53.789Z,61888.44
2019-01-14T15:01:01.335Z,61738.66
2019-01-14T15:03:27.562Z,61892.08
2019-01-14T15:05:53.860Z,61887.51
2019-01-14T15:08:20.079Z,61889.33
2019-01-14T15:10:46.320Z,61886.97
2019-01-14T15:13:12.567Z,61890.20
2019-01-14T15:15:38.839Z,61890.61
2019-01-14T15:18:05.049Z,61894.44
2019-01-14T15:20:31.287Z,61890.20
2019-01-14T15:22:57.503Z,61889.66
2019-01-14T15:25:23.746Z,61889.87
2019-01-14T15:27:49.967Z,61889.52
2019-01-14T15:30:57.536Z,61883.87
2019-01-14T15:33:23.757Z,61884.82
2019-01-14T15:35:49.998Z,61886.97
2019-01-14T15:38:16.136Z,61890.61
2019-01-14T15:40:42.387Z,61884.61
2019-01-14T15:43:08.610Z,61884.41
2019-01-14T15:45:34.852Z,61885.01
2019-01-14T15:48:01.091Z,61884.28
2019-01-14T15:50:27.244Z,61882.65
2019-01-14T15:52:53.501Z,61881.78
2019-01-14T15:56:01.023Z,61879.96
2019-01-14T15:58:27.270Z,61881.23
2019-01-14T16:00:53.422Z,61872.54
2019-01-14T16:03:19.652Z,61872.35
2019-01-14T16:05:45.901Z,61875.37
2019-01-14T16:08:12.136Z,61869.52
2019-01-14T16:10:38.355Z,61867.21
2019-01-14T16:13:04.628Z,61869.23
2019-01-14T16:15:30.847Z,61863.25
2019-01-14T16:17:57.086Z,61834.15
2019-01-14T16:20:23.323Z,61866.54
2019-01-14T16:22:49.551Z,61863.98
2019-01-14T16:25:15.772Z,61863.98
2019-01-14T16:27:42.024Z,61864.31
2019-01-14T16:33:21.617Z,61863.85
2019-01-14T16:35:47.857Z,61865.12
2019-01-14T16:38:14.000Z,61858.39
2019-01-14T16:40:40.216Z,61860.07
2019-01-14T16:43:06.476Z,61854.96
2019-01-14T16:45:32.602Z,61859.34
2019-01-14T16:47:58.736Z,61855.91
2019-01-14T16:50:24.896Z,61854.50
2019-01-14T16:53:32.451Z,61857.19
2019-01-14T16:58:46.326Z,61855.70
2019-01-14T17:01:12.547Z,61848.98
2019-01-14T17:03:38.804Z,61856.64
2019-01-14T17:06:04.967Z,61854.42
2019-01-14T17:08:31.185Z,61858.58
2019-01-14T17:10:57.415Z,61855.16
2019-01-14T17:13:23.676Z,61857.11
2019-01-14T17:15:49.919Z,61863.30
2019-01-14T17:18:16.058Z,61860.40
2019-01-14T17:20:42.264Z,61860.21
2019-01-14T17:23:08.512Z,61862.36
2019-01-14T17:25:34.737Z,61862.36
2019-01-14T17:28:00.990Z,61862.16
2019-01-14T17:30:27.216Z,61867.27
2019-01-14T17:32:53.657Z,61859.61
2019-01-14T17:35:19.787Z,61869.42
2019-01-14T17:37:46.036Z,61866.34
2019-01-14T17:40:32.692Z,61870.51
2019-01-14T17:42:59.199Z,61869.96
2019-01-14T17:45:25.448Z,61869.23
2019-01-14T17:47:51.681Z,61870.31
2019-01-14T17:50:59.235Z,61870.12
2019-01-14T17:53:25.479Z,61871.40
2019-01-14T17:55:51.703Z,61874.69
2019-01-14T17:58:17.955Z,61867.57
2019-01-14T18:00:45.004Z,61869.71
2019-01-14T18:03:12.347Z,61868.44
2019-01-14T18:05:38.579Z,61866.75
2019-01-14T18:08:04.827Z,61870.80
2019-01-14T18:10:31.076Z,61875.50
2019-01-14T18:12:57.325Z,61875.15
2019-01-14T18:15:23.486Z,61875.31
2019-01-14T18:17:49.618Z,61874.91
2019-01-14T18:20:57.162Z,61878.41
2019-01-14T18:23:23.393Z,61874.42
2019-01-14T18:25:49.637Z,61869.85
2019-01-14T18:28:15.874Z,61866.75
2019-01-14T18:30:42.112Z,61871.86
2019-01-14T18:33:08.348Z,61871.86
2019-01-14T18:35:34.603Z,61873.36
2019-01-14T18:38:00.824Z,61870.04
2019-01-14T18:40:33.475Z,61867.49
2019-01-14T18:42:55.208Z,61874.09
2019-01-14T18:45:21.441Z,61869.52
2019-01-14T18:47:47.810Z,61868.44
2019-01-14T18:53:27.368Z,61869.91
2019-01-14T18:55:53.510Z,61879.80
2019-01-14T18:58:19.736Z,61862.11
2019-01-14T19:00:45.980Z,61867.95
2019-01-14T19:03:12.208Z,61868.14
2019-01-14T19:05:38.452Z,61867.08
2019-01-14T19:08:04.672Z,61864.31
2019-01-14T19:10:30.921Z,61863.79
2019-01-14T19:12:57.147Z,61863.04
2019-01-14T19:15:23.400Z,61869.96
2019-01-14T19:17:49.621Z,61863.04
2019-01-14T19:20:35.612Z,61862.16
2019-01-14T19:23:01.852Z,61864.53
2019-01-14T19:25:28.088Z,61868.49
2019-01-14T19:27:54.312Z,61857.19
2019-01-14T19:30:20.585Z,61863.25
2019-01-14T19:32:46.815Z,61865.80
2019-01-14T19:35:13.185Z,61862.16
2019-01-14T19:37:39.811Z,61865.26
2019-01-14T19:40:48.875Z,61861.24
2019-01-14T19:43:15.138Z,61860.89
2019-01-14T19:45:41.303Z,61861.97
2019-01-14T19:48:07.549Z,61861.97
2019-01-14T19:50:33.777Z,61868.14
2019-01-14T19:53:00.016Z,61868.90
2019-01-14T19:55:26.285Z,61866.13
2019-01-14T19:58:33.797Z,61863.04
2019-01-14T20:01:00.060Z,61865.59
2019-01-14T20:03:26.199Z,61867.21
2019-01-14T20:05:52.432Z,61865.40
2019-01-14T20:11:09.379Z,61866.29
2019-01-14T20:13:34.423Z,61871.92
2019-01-14T20:16:00.661Z,61869.58
2019-01-14T20:18:26.895Z,61869.91
2019-01-14T20:20:53.134Z,61871.18
2019-01-14T20:23:19.369Z,61869.58
2019-01-14T20:25:45.606Z,61870.12
2019-01-14T20:28:11.845Z,61863.93
2019-01-14T20:30:38.075Z,61868.84
2019-01-14T20:33:05.999Z,61870.31
2019-01-14T20:38:00.488Z,61867.76
2019-01-14T20:40:26.627Z,61867.02
2019-01-14T20:45:46.517Z,61870.64
2019-01-14T20:48:12.764Z,61883.03
2019-01-14T20:50:38.990Z,61870.99
2019-01-14T20:53:05.246Z,61869.17
2019-01-14T20:55:31.474Z,61867.16
2019-01-14T20:57:57.709Z,61871.32
2019-01-14T21:00:24.031Z,61872.27
2019-01-14T21:02:50.169Z,61874.42
2019-01-14T21:08:04.009Z,61877.32
2019-01-14T21:10:30.150Z,61867.35
2019-01-14T21:12:56.298Z,61870.59
2019-01-14T21:15:22.526Z,61874.63
2019-01-14T21:17:48.797Z,61872.60
2019-01-14T21:20:34.779Z,61874.63
2019-01-14T21:23:01.023Z,61875.37
2019-01-14T21:25:27.251Z,61865.69
2019-01-14T21:27:53.389Z,61869.91
2019-01-14T21:33:32.755Z,61866.97
2019-01-14T21:35:58.963Z,61875.15
2019-01-14T21:38:25.105Z,61873.14
2019-01-14T21:40:51.338Z,61872.60
2019-01-14T21:43:17.571Z,61873.14
2019-01-14T21:45:43.791Z,61871.32
2019-01-14T21:48:16.958Z,61872.41
2019-01-14T21:50:38.165Z,61878.35
2019-01-14T21:53:04.321Z,61876.18
2019-01-14T21:55:30.443Z,61873.24
2019-01-14T21:57:56.681Z,61881.43
2019-01-14T22:00:22.918Z,61885.42
2019-01-14T22:02:49.235Z,61886.70
2019-01-14T22:05:15.479Z,61881.91
2019-01-14T22:07:41.695Z,61884.33
2019-01-14T22:10:49.238Z,61879.77
2019-01-14T22:13:15.371Z,61881.23
2019-01-14T22:15:41.515Z,61878.35
2019-01-14T22:18:07.753Z,61883.05
2019-01-14T22:20:33.879Z,61883.25
2019-01-14T22:23:00.122Z,61887.57
2019-01-14T22:25:26.250Z,61884.09
2019-01-14T22:27:52.373Z,61885.94
2019-01-14T22:30:38.363Z,61881.59
2019-01-14T22:33:04.612Z,61880.31
2019-01-14T22:35:30.849Z,61881.59
2019-01-14T22:37:57.076Z,61887.57
2019-01-14T22:40:23.212Z,61881.91
2019-01-14T22:42:49.443Z,61880.64
2019-01-14T22:45:15.683Z,61883.73
2019-01-14T22:47:41.822Z,61881.72
2019-01-14T22:53:08.845Z,61885.21
2019-01-14T22:55:34.976Z,61891.54
2019-01-14T22:58:01.225Z,61884.61
2019-01-14T23:01:08.775Z,61887.92
2019-01-14T23:03:35.009Z,61890.47
2019-01-14T23:06:01.236Z,61880.99
2019-01-14T23:08:27.369Z,61889.52
2019-01-14T23:10:53.609Z,61892.21
2019-01-14T23:13:19.732Z,61889.52
2019-01-14T23:15:45.919Z,61887.16
2019-01-14T23:18:12.054Z,61884.22
2019-01-14T23:20:38.188Z,61892.70
2019-01-14T23:23:04.410Z,61823.92
2019-01-14T23:25:30.655Z,61886.97
2019-01-14T23:27:56.773Z,61891.34
2019-01-14T23:30:22.911Z,61888.60
2019-01-14T23:32:49.060Z,61892.57
2019-01-14T23:35:15.176Z,61894.39
2019-01-14T23:37:41.314Z,61895.61
2019-01-14T23:43:20.919Z,61894.85
2019-01-14T23:45:47.152Z,61894.33
2019-01-14T23:48:13.386Z,61895.39
2019-01-14T23:50:39.508Z,61897.02
2019-01-14T23:53:05.739Z,61899.04
2019-01-14T23:55:31.961Z,61899.91
2019-01-14T23:57:58.216Z,61901.18
